sensor_id;sensor_type;location;lat;lon;timestamp;P1;durP1;ratioP1;P2;durP2;ratioP2
147;SDS011;142;50.652;12.216;2022-10-23T00:01:22;0.00;;;0.00;;
147;SDS011;142;50.652;12.216;2022-10-23T00:03:50;0.20;;;0.10;;
147;SDS011;142;50.652;12.216;2022-10-23T00:06:18;0.20;;;0.10;;
147;SDS011;142;50.652;12.216;2022-10-23T00:08:46;0.20;;;0.10;;
147;SDS011;142;50.652;12.216;2022-10-23T00:11:15;0.20;;;0.10;;
147;SDS011;142;50.652;12.216;2022-10-23T00:13:45;0.20;;;0.10;;
147;SDS011;142;50.652;12.216;2022-10-23T00:16:13;0.20;;;0.10;;
147;SDS011;142;50.652;12.216;2022-10-23T00:18:40;0.27;;;0.17;;
147;SDS011;142;50.652;12.216;2022-10-23T00:21:09;0.20;;;0.10;;
147;SDS011;142;50.652;12.216;2022-10-23T00:23:38;0.20;;;0.10;;
147;SDS011;142;50.652;12.216;2022-10-23T00:26:06;0.30;;;0.20;;
147;SDS011;142;50.652;12.216;2022-10-23T00:28:35;0.30;;;0.20;;
147;SDS011;142;50.652;12.216;2022-10-23T00:31:04;0.23;;;0.13;;
147;SDS011;142;50.652;12.216;2022-10-23T00:33:32;0.20;;;0.10;;
147;SDS011;142;50.652;12.216;2022-10-23T00:35:58;0.30;;;0.20;;
147;SDS011;142;50.652;12.216;2022-10-23T00:38:26;0.30;;;0.20;;
147;SDS011;142;50.652;12.216;2022-10-23T00:40:53;0.20;;;0.10;;
147;SDS011;142;50.652;12.216;2022-10-23T00:43:21;0.23;;;0.13;;
147;SDS011;142;50.652;12.216;2022-10-23T00:45:51;0.20;;;0.10;;
147;SDS011;142;50.652;12.216;2022-10-23T00:48:20;0.30;;;0.20;;
147;SDS011;142;50.652;12.216;2022-10-23T00:50:47;0.30;;;0.20;;
147;SDS011;142;50.652;12.216;2022-10-23T00:53:16;0.30;;;0.20;;
147;SDS011;142;50.652;12.216;2022-10-23T00:55:44;0.30;;;0.20;;
147;SDS011;142;50.652;12.216;2022-10-23T00:58:14;0.30;;;0.20;;
147;SDS011;142;50.652;12.216;2022-10-23T01:00:43;0.30;;;0.20;;
147;SDS011;142;50.652;12.216;2022-10-23T01:03:12;0.20;;;0.10;;
147;SDS011;142;50.652;12.216;2022-10-23T01:05:45;0.30;;;0.20;;
147;SDS011;142;50.652;12.216;2022-10-23T01:08:21;0.20;;;0.10;;
147;SDS011;142;50.652;12.216;2022-10-23T01:10:53;0.30;;;0.20;;
147;SDS011;142;50.652;12.216;2022-10-23T01:13:28;0.20;;;0.10;;
147;SDS011;142;50.652;12.216;2022-10-23T01:16:04;0.20;;;0.10;;
147;SDS011;142;50.652;12.216;2022-10-23T01:18:38;0.07;;;0.03;;
147;SDS011;142;50.652;12.216;2022-10-23T01:21:12;0.20;;;0.10;;
147;SDS011;142;50.652;12.216;2022-10-23T01:26:55;0.30;;;0.20;;
147;SDS011;142;50.652;12.216;2022-10-23T01:29:38;0.20;;;0.10;;
147;SDS011;142;50.652;12.216;2022-10-23T01:32:09;0.20;;;0.10;;
147;SDS011;142;50.652;12.216;2022-10-23T01:34:42;0.20;;;0.10;;
147;SDS011;142;50.652;12.216;2022-10-23T01:37:12;0.30;;;0.20;;
147;SDS011;142;50.652;12.216;2022-10-23T01:39:47;0.20;;;0.10;;
147;SDS011;142;50.652;12.216;2022-10-23T01:42:19;0.20;;;0.10;;
147;SDS011;142;50.652;12.216;2022-10-23T01:44:50;0.20;;;0.10;;
147;SDS011;142;50.652;12.216;2022-10-23T01:47:24;0.20;;;0.10;;
147;SDS011;142;50.652;12.216;2022-10-23T01:49:54;0.30;;;0.20;;
147;SDS011;142;50.652;12.216;2022-10-23T01:52:22;0.20;;;0.10;;
147;SDS011;142;50.652;12.216;2022-10-23T01:54:50;0.30;;;0.20;;
147;SDS011;142;50.652;12.216;2022-10-23T01:57:21;0.20;;;0.10;;
147;SDS011;142;50.652;12.216;2022-10-23T01:59:51;0.30;;;0.20;;
147;SDS011;142;50.652;12.216;2022-10-23T02:02:23;0.30;;;0.20;;
147;SDS011;142;50.652;12.216;2022-10-23T02:04:54;0.20;;;0.10;;
147;SDS011;142;50.652;12.216;2022-10-23T02:07:24;0.30;;;0.20;;
147;SDS011;142;50.652;12.216;2022-10-23T02:09:51;0.30;;;0.20;;
147;SDS011;142;50.652;12.216;2022-10-23T02:12:22;0.30;;;0.20;;
147;SDS011;142;50.652;12.216;2022-10-23T02:14:56;0.20;;;0.10;;
147;SDS011;142;50.652;12.216;2022-10-23T02:17:28;0.20;;;0.10;;
147;SDS011;142;50.652;12.216;2022-10-23T02:20:05;0.23;;;0.13;;
147;SDS011;142;50.652;12.216;2022-10-23T02:22:44;0.30;;;0.20;;
147;SDS011;142;50.652;12.216;2022-10-23T02:25:21;0.20;;;0.10;;
147;SDS011;142;50.652;12.216;2022-10-23T02:27:54;0.13;;;0.07;;
147;SDS011;142;50.652;12.216;2022-10-23T02:30:25;0.30;;;0.20;;
147;SDS011;142;50.652;12.216;2022-10-23T02:32:53;0.30;;;0.20;;
147;SDS011;142;50.652;12.216;2022-10-23T02:35:22;0.30;;;0.20;;
147;SDS011;142;50.652;12.216;2022-10-23T02:37:53;0.30;;;0.20;;
147;SDS011;142;50.652;12.216;2022-10-23T02:40:21;0.40;;;0.30;;
147;SDS011;142;50.652;12.216;2022-10-23T02:42:50;0.30;;;0.20;;
147;SDS011;142;50.652;12.216;2022-10-23T02:45:23;0.30;;;0.20;;
147;SDS011;142;50.652;12.216;2022-10-23T02:47:59;0.27;;;0.17;;
147;SDS011;142;50.652;12.216;2022-10-23T02:50:32;0.30;;;0.20;;
147;SDS011;142;50.652;12.216;2022-10-23T02:53:05;0.20;;;0.10;;
147;SDS011;142;50.652;12.216;2022-10-23T02:55:42;0.20;;;0.10;;
147;SDS011;142;50.652;12.216;2022-10-23T02:58:19;0.23;;;0.13;;
147;SDS011;142;50.652;12.216;2022-10-23T03:00:53;0.30;;;0.20;;
147;SDS011;142;50.652;12.216;2022-10-23T03:03:26;0.20;;;0.10;;
147;SDS011;142;50.652;12.216;2022-10-23T03:05:57;0.20;;;0.10;;
147;SDS011;142;50.652;12.216;2022-10-23T03:08:24;0.30;;;0.20;;
147;SDS011;142;50.652;12.216;2022-10-23T03:10:51;0.37;;;0.27;;
147;SDS011;142;50.652;12.216;2022-10-23T03:13:20;0.20;;;0.10;;
147;SDS011;142;50.652;12.216;2022-10-23T03:15:47;0.30;;;0.20;;
147;SDS011;142;50.652;12.216;2022-10-23T03:18:14;0.30;;;0.20;;
147;SDS011;142;50.652;12.216;2022-10-23T03:20:41;0.20;;;0.10;;
147;SDS011;142;50.652;12.216;2022-10-23T03:23:09;0.30;;;0.20;;
147;SDS011;142;50.652;12.216;2022-10-23T03:25:38;0.27;;;0.17;;
147;SDS011;142;50.652;12.216;2022-10-23T03:28:05;0.20;;;0.10;;
147;SDS011;142;50.652;12.216;2022-10-23T03:30:33;0.30;;;0.20;;
147;SDS011;142;50.652;12.216;2022-10-23T03:33:00;0.20;;;0.10;;
147;SDS011;142;50.652;12.216;2022-10-23T03:35:29;0.30;;;0.20;;
147;SDS011;142;50.652;12.216;2022-10-23T03:37:56;0.20;;;0.10;;
147;SDS011;142;50.652;12.216;2022-10-23T03:40:24;0.30;;;0.20;;
147;SDS011;142;50.652;12.216;2022-10-23T03:42:51;0.30;;;0.20;;
147;SDS011;142;50.652;12.216;2022-10-23T03:45:18;0.30;;;0.20;;
147;SDS011;142;50.652;12.216;2022-10-23T03:47:47;0.20;;;0.10;;
147;SDS011;142;50.652;12.216;2022-10-23T03:50:16;0.20;;;0.10;;
147;SDS011;142;50.652;12.216;2022-10-23T03:52:43;0.20;;;0.10;;
147;SDS011;142;50.652;12.216;2022-10-23T03:55:11;0.30;;;0.20;;
147;SDS011;142;50.652;12.216;2022-10-23T03:57:38;0.20;;;0.10;;
147;SDS011;142;50.652;12.216;2022-10-23T04:00:05;0.27;;;0.17;;
147;SDS011;142;50.652;12.216;2022-10-23T04:02:33;0.20;;;0.10;;
147;SDS011;142;50.652;12.216;2022-10-23T04:05:02;0.13;;;0.07;;
147;SDS011;142;50.652;12.216;2022-10-23T04:07:31;0.20;;;0.10;;
147;SDS011;142;50.652;12.216;2022-10-23T04:09:58;0.40;;;0.30;;
147;SDS011;142;50.652;12.216;2022-10-23T04:12:25;0.20;;;0.10;;
147;SDS011;142;50.652;12.216;2022-10-23T04:14:52;0.20;;;0.10;;
147;SDS011;142;50.652;12.216;2022-10-23T04:17:19;0.30;;;0.20;;
147;SDS011;142;50.652;12.216;2022-10-23T04:19:46;0.30;;;0.20;;
147;SDS011;142;50.652;12.216;2022-10-23T04:22:15;0.37;;;0.27;;
147;SDS011;142;50.652;12.216;2022-10-23T04:24:42;0.20;;;0.10;;
147;SDS011;142;50.652;12.216;2022-10-23T04:27:10;0.13;;;0.07;;
147;SDS011;142;50.652;12.216;2022-10-23T04:29:38;0.20;;;0.10;;
147;SDS011;142;50.652;12.216;2022-10-23T04:32:05;0.30;;;0.20;;
147;SDS011;142;50.652;12.216;2022-10-23T04:34:33;0.23;;;0.13;;
147;SDS011;142;50.652;12.216;2022-10-23T04:37:00;0.30;;;0.20;;
147;SDS011;142;50.652;12.216;2022-10-23T04:39:28;0.23;;;0.13;;
147;SDS011;142;50.652;12.216;2022-10-23T04:41:55;0.20;;;0.10;;
147;SDS011;142;50.652;12.216;2022-10-23T04:44:23;0.20;;;0.10;;
147;SDS011;142;50.652;12.216;2022-10-23T04:46:49;0.30;;;0.20;;
147;SDS011;142;50.652;12.216;2022-10-23T04:49:17;0.20;;;0.10;;
147;SDS011;142;50.652;12.216;2022-10-23T04:51:44;0.20;;;0.10;;
147;SDS011;142;50.652;12.216;2022-10-23T04:54:11;0.30;;;0.20;;
147;SDS011;142;50.652;12.216;2022-10-23T04:56:39;0.40;;;0.30;;
147;SDS011;142;50.652;12.216;2022-10-23T04:59:06;0.20;;;0.10;;
147;SDS011;142;50.652;12.216;2022-10-23T05:01:34;0.40;;;0.30;;
147;SDS011;142;50.652;12.216;2022-10-23T05:04:01;0.40;;;0.30;;
147;SDS011;142;50.652;12.216;2022-10-23T05:06:29;0.30;;;0.20;;
147;SDS011;142;50.652;12.216;2022-10-23T05:08:56;0.20;;;0.10;;
147;SDS011;142;50.652;12.216;2022-10-23T05:11:23;0.30;;;0.20;;
147;SDS011;142;50.652;12.216;2022-10-23T05:13:52;0.20;;;0.10;;
147;SDS011;142;50.652;12.216;2022-10-23T05:16:23;0.30;;;0.20;;
147;SDS011;142;50.652;12.216;2022-10-23T05:18:57;0.30;;;0.20;;
147;SDS011;142;50.652;12.216;2022-10-23T05:21:25;0.13;;;0.07;;
147;SDS011;142;50.652;12.216;2022-10-23T05:23:57;0.30;;;0.20;;
147;SDS011;142;50.652;12.216;2022-10-23T05:26:25;0.20;;;0.10;;
147;SDS011;142;50.652;12.216;2022-10-23T05:28:54;0.30;;;0.20;;
147;SDS011;142;50.652;12.216;2022-10-23T05:31:22;0.30;;;0.20;;
147;SDS011;142;50.652;12.216;2022-10-23T05:33:50;0.30;;;0.20;;
147;SDS011;142;50.652;12.216;2022-10-23T05:36:20;0.20;;;0.10;;
147;SDS011;142;50.652;12.216;2022-10-23T05:38:48;0.20;;;0.10;;
147;SDS011;142;50.652;12.216;2022-10-23T05:41:16;0.20;;;0.10;;
147;SDS011;142;50.652;12.216;2022-10-23T05:43:44;0.20;;;0.10;;
147;SDS011;142;50.652;12.216;2022-10-23T05:46:12;0.20;;;0.10;;
147;SDS011;142;50.652;12.216;2022-10-23T05:48:41;0.30;;;0.20;;
147;SDS011;142;50.652;12.216;2022-10-23T05:51:09;0.30;;;0.20;;
147;SDS011;142;50.652;12.216;2022-10-23T05:53:44;0.30;;;0.20;;
147;SDS011;142;50.652;12.216;2022-10-23T05:56:11;0.30;;;0.20;;
147;SDS011;142;50.652;12.216;2022-10-23T05:58:38;0.30;;;0.20;;
147;SDS011;142;50.652;12.216;2022-10-23T06:01:05;0.30;;;0.20;;
147;SDS011;142;50.652;12.216;2022-10-23T06:03:35;0.30;;;0.20;;
147;SDS011;142;50.652;12.216;2022-10-23T06:06:03;0.30;;;0.20;;
147;SDS011;142;50.652;12.216;2022-10-23T06:08:31;0.30;;;0.20;;
147;SDS011;142;50.652;12.216;2022-10-23T06:11:03;0.20;;;0.10;;
147;SDS011;142;50.652;12.216;2022-10-23T06:13:32;0.20;;;0.10;;
147;SDS011;142;50.652;12.216;2022-10-23T06:16:06;0.30;;;0.20;;
147;SDS011;142;50.652;12.216;2022-10-23T06:18:35;0.20;;;0.10;;
147;SDS011;142;50.652;12.216;2022-10-23T06:21:02;0.33;;;0.23;;
147;SDS011;142;50.652;12.216;2022-10-23T06:23:31;0.20;;;0.10;;
147;SDS011;142;50.652;12.216;2022-10-23T06:25:59;0.30;;;0.20;;
147;SDS011;142;50.652;12.216;2022-10-23T06:28:26;0.30;;;0.20;;
147;SDS011;142;50.652;12.216;2022-10-23T06:30:53;0.30;;;0.20;;
147;SDS011;142;50.652;12.216;2022-10-23T06:33:21;0.20;;;0.10;;
147;SDS011;142;50.652;12.216;2022-10-23T06:35:49;0.30;;;0.20;;
147;SDS011;142;50.652;12.216;2022-10-23T06:38:16;0.30;;;0.20;;
147;SDS011;142;50.652;12.216;2022-10-23T06:40:43;0.30;;;0.20;;
147;SDS011;142;50.652;12.216;2022-10-23T06:43:11;0.30;;;0.20;;
147;SDS011;142;50.652;12.216;2022-10-23T06:45:38;0.20;;;0.10;;
147;SDS011;142;50.652;12.216;2022-10-23T06:48:05;0.27;;;0.17;;
147;SDS011;142;50.652;12.216;2022-10-23T06:50:33;0.30;;;0.20;;
147;SDS011;142;50.652;12.216;2022-10-23T06:53:03;0.20;;;0.10;;
147;SDS011;142;50.652;12.216;2022-10-23T06:55:31;0.20;;;0.10;;
147;SDS011;142;50.652;12.216;2022-10-23T06:57:58;0.30;;;0.20;;
147;SDS011;142;50.652;12.216;2022-10-23T07:00:25;0.20;;;0.10;;
147;SDS011;142;50.652;12.216;2022-10-23T07:02:52;0.23;;;0.13;;
147;SDS011;142;50.652;12.216;2022-10-23T07:05:19;0.20;;;0.10;;
147;SDS011;142;50.652;12.216;2022-10-23T07:07:46;0.30;;;0.20;;
147;SDS011;142;50.652;12.216;2022-10-23T07:10:15;0.20;;;0.10;;
147;SDS011;142;50.652;12.216;2022-10-23T07:12:42;0.30;;;0.20;;
147;SDS011;142;50.652;12.216;2022-10-23T07:15:11;0.20;;;0.10;;
147;SDS011;142;50.652;12.216;2022-10-23T07:17:38;0.13;;;0.07;;
147;SDS011;142;50.652;12.216;2022-10-23T07:20:06;0.30;;;0.20;;
147;SDS011;142;50.652;12.216;2022-10-23T07:22:34;0.20;;;0.10;;
147;SDS011;142;50.652;12.216;2022-10-23T07:25:02;0.30;;;0.20;;
147;SDS011;142;50.652;12.216;2022-10-23T07:27:34;0.20;;;0.10;;
147;SDS011;142;50.652;12.216;2022-10-23T07:30:02;0.30;;;0.20;;
147;SDS011;142;50.652;12.216;2022-10-23T07:32:30;0.30;;;0.20;;
147;SDS011;142;50.652;12.216;2022-10-23T07:34:57;0.20;;;0.10;;
147;SDS011;142;50.652;12.216;2022-10-23T07:37:24;0.20;;;0.10;;
147;SDS011;142;50.652;12.216;2022-10-23T07:39:51;0.30;;;0.20;;
147;SDS011;142;50.652;12.216;2022-10-23T07:42:18;0.20;;;0.10;;
147;SDS011;142;50.652;12.216;2022-10-23T07:44:46;0.30;;;0.20;;
147;SDS011;142;50.652;12.216;2022-10-23T07:47:17;0.30;;;0.20;;
147;SDS011;142;50.652;12.216;2022-10-23T07:49:45;0.27;;;0.17;;
147;SDS011;142;50.652;12.216;2022-10-23T07:52:13;0.20;;;0.10;;
147;SDS011;142;50.652;12.216;2022-10-23T07:54:40;0.20;;;0.10;;
147;SDS011;142;50.652;12.216;2022-10-23T07:57:07;0.00;;;0.00;;
147;SDS011;142;50.652;12.216;2022-10-23T07:59:36;0.20;;;0.10;;
147;SDS011;142;50.652;12.216;2022-10-23T08:02:09;0.20;;;0.10;;
147;SDS011;142;50.652;12.216;2022-10-23T08:04:37;0.20;;;0.10;;
147;SDS011;142;50.652;12.216;2022-10-23T08:07:04;0.20;;;0.10;;
147;SDS011;142;50.652;12.216;2022-10-23T08:09:31;0.20;;;0.10;;
147;SDS011;142;50.652;12.216;2022-10-23T08:11:59;0.00;;;0.00;;
147;SDS011;142;50.652;12.216;2022-10-23T08:14:26;0.00;;;0.00;;
147;SDS011;142;50.652;12.216;2022-10-23T08:16:54;0.20;;;0.10;;
147;SDS011;142;50.652;12.216;2022-10-23T08:19:22;0.00;;;0.00;;
147;SDS011;142;50.652;12.216;2022-10-23T08:21:49;0.40;;;0.30;;
147;SDS011;142;50.652;12.216;2022-10-23T08:24:19;0.20;;;0.10;;
147;SDS011;142;50.652;12.216;2022-10-23T08:26:47;0.20;;;0.10;;
147;SDS011;142;50.652;12.216;2022-10-23T08:29:15;0.20;;;0.10;;
147;SDS011;142;50.652;12.216;2022-10-23T08:31:42;0.20;;;0.10;;
147;SDS011;142;50.652;12.216;2022-10-23T08:34:11;0.00;;;0.00;;
147;SDS011;142;50.652;12.216;2022-10-23T08:36:39;0.20;;;0.10;;
147;SDS011;142;50.652;12.216;2022-10-23T08:39:06;0.20;;;0.10;;
147;SDS011;142;50.652;12.216;2022-10-23T08:41:35;0.20;;;0.10;;
147;SDS011;142;50.652;12.216;2022-10-23T08:44:06;0.20;;;0.10;;
147;SDS011;142;50.652;12.216;2022-10-23T08:46:39;0.20;;;0.10;;
147;SDS011;142;50.652;12.216;2022-10-23T08:49:14;0.20;;;0.10;;
147;SDS011;142;50.652;12.216;2022-10-23T08:51:52;0.20;;;0.10;;
147;SDS011;142;50.652;12.216;2022-10-23T08:54:23;0.20;;;0.10;;
147;SDS011;142;50.652;12.216;2022-10-23T08:56:57;0.20;;;0.10;;
147;SDS011;142;50.652;12.216;2022-10-23T08:59:28;0.20;;;0.10;;
147;SDS011;142;50.652;12.216;2022-10-23T09:02:07;0.20;;;0.10;;
147;SDS011;142;50.652;12.216;2022-10-23T09:04:40;0.00;;;0.00;;
147;SDS011;142;50.652;12.216;2022-10-23T09:07:14;0.20;;;0.10;;
147;SDS011;142;50.652;12.216;2022-10-23T09:09:54;0.00;;;0.00;;
147;SDS011;142;50.652;12.216;2022-10-23T09:12:29;0.20;;;0.10;;
147;SDS011;142;50.652;12.216;2022-10-23T09:15:06;0.00;;;0.00;;
147;SDS011;142;50.652;12.216;2022-10-23T09:17:45;0.00;;;0.00;;
147;SDS011;142;50.652;12.216;2022-10-23T09:20:18;0.00;;;0.00;;
147;SDS011;142;50.652;12.216;2022-10-23T09:22:58;0.00;;;0.00;;
147;SDS011;142;50.652;12.216;2022-10-23T09:25:28;0.00;;;0.00;;
147;SDS011;142;50.652;12.216;2022-10-23T09:27:57;0.00;;;0.00;;
147;SDS011;142;50.652;12.216;2022-10-23T09:30:26;0.20;;;0.10;;
147;SDS011;142;50.652;12.216;2022-10-23T09:32:54;0.00;;;0.00;;
147;SDS011;142;50.652;12.216;2022-10-23T09:35:22;0.20;;;0.10;;
147;SDS011;142;50.652;12.216;2022-10-23T09:37:50;0.07;;;0.03;;
147;SDS011;142;50.652;12.216;2022-10-23T09:40:22;0.20;;;0.10;;
147;SDS011;142;50.652;12.216;2022-10-23T09:42:58;0.00;;;0.00;;
147;SDS011;142;50.652;12.216;2022-10-23T09:45:29;0.00;;;0.00;;
147;SDS011;142;50.652;12.216;2022-10-23T09:48:09;0.20;;;0.10;;
147;SDS011;142;50.652;12.216;2022-10-23T09:50:41;0.00;;;0.00;;
147;SDS011;142;50.652;12.216;2022-10-23T09:53:19;0.00;;;0.00;;
147;SDS011;142;50.652;12.216;2022-10-23T09:55:58;0.20;;;0.10;;
147;SDS011;142;50.652;12.216;2022-10-23T09:58:34;0.20;;;0.10;;
147;SDS011;142;50.652;12.216;2022-10-23T10:01:04;0.00;;;0.00;;
147;SDS011;142;50.652;12.216;2022-10-23T10:03:31;0.00;;;0.00;;
147;SDS011;142;50.652;12.216;2022-10-23T10:05:59;0.00;;;0.00;;
147;SDS011;142;50.652;12.216;2022-10-23T10:08:34;0.00;;;0.00;;
147;SDS011;142;50.652;12.216;2022-10-23T10:11:06;0.00;;;0.00;;
147;SDS011;142;50.652;12.216;2022-10-23T10:13:46;0.00;;;0.00;;
147;SDS011;142;50.652;12.216;2022-10-23T10:16:22;0.00;;;0.00;;
147;SDS011;142;50.652;12.216;2022-10-23T10:18:56;0.00;;;0.00;;
147;SDS011;142;50.652;12.216;2022-10-23T10:21:29;0.00;;;0.00;;
147;SDS011;142;50.652;12.216;2022-10-23T10:24:04;0.00;;;0.00;;
147;SDS011;142;50.652;12.216;2022-10-23T10:26:36;0.00;;;0.00;;
147;SDS011;142;50.652;12.216;2022-10-23T10:29:13;0.20;;;0.10;;
147;SDS011;142;50.652;12.216;2022-10-23T10:31:55;0.00;;;0.00;;
147;SDS011;142;50.652;12.216;2022-10-23T10:34:31;0.00;;;0.00;;
147;SDS011;142;50.652;12.216;2022-10-23T10:37:11;0.00;;;0.00;;
147;SDS011;142;50.652;12.216;2022-10-23T10:39:51;0.20;;;0.10;;
147;SDS011;142;50.652;12.216;2022-10-23T10:42:36;0.20;;;0.10;;
147;SDS011;142;50.652;12.216;2022-10-23T10:45:24;0.00;;;0.00;;
147;SDS011;142;50.652;12.216;2022-10-23T10:48:15;0.00;;;0.00;;
147;SDS011;142;50.652;12.216;2022-10-23T10:50:58;0.00;;;0.00;;
147;SDS011;142;50.652;12.216;2022-10-23T10:53:33;0.20;;;0.10;;
147;SDS011;142;50.652;12.216;2022-10-23T10:56:13;0.00;;;0.00;;
147;SDS011;142;50.652;12.216;2022-10-23T10:58:43;0.20;;;0.10;;
147;SDS011;142;50.652;12.216;2022-10-23T11:01:16;0.00;;;0.00;;
147;SDS011;142;50.652;12.216;2022-10-23T11:03:51;0.00;;;0.00;;
147;SDS011;142;50.652;12.216;2022-10-23T11:06:23;0.00;;;0.00;;
147;SDS011;142;50.652;12.216;2022-10-23T11:08:55;0.00;;;0.00;;
147;SDS011;142;50.652;12.216;2022-10-23T11:11:30;0.00;;;0.00;;
147;SDS011;142;50.652;12.216;2022-10-23T11:14:01;0.00;;;0.00;;
147;SDS011;142;50.652;12.216;2022-10-23T11:16:30;0.00;;;0.00;;
147;SDS011;142;50.652;12.216;2022-10-23T11:19:02;0.00;;;0.00;;
147;SDS011;142;50.652;12.216;2022-10-23T11:21:34;0.00;;;0.00;;
147;SDS011;142;50.652;12.216;2022-10-23T11:24:09;0.00;;;0.00;;
147;SDS011;142;50.652;12.216;2022-10-23T11:26:55;0.00;;;0.00;;
147;SDS011;142;50.652;12.216;2022-10-23T11:32:30;0.00;;;0.00;;
147;SDS011;142;50.652;12.216;2022-10-23T11:35:19;0.00;;;0.00;;
147;SDS011;142;50.652;12.216;2022-10-23T11:37:57;0.00;;;0.00;;
147;SDS011;142;50.652;12.216;2022-10-23T11:40:26;0.00;;;0.00;;
147;SDS011;142;50.652;12.216;2022-10-23T11:42:55;0.00;;;0.00;;
147;SDS011;142;50.652;12.216;2022-10-23T11:51:01;0.00;;;0.00;;
147;SDS011;142;50.652;12.216;2022-10-23T11:53:36;0.00;;;0.00;;
147;SDS011;142;50.652;12.216;2022-10-23T11:56:22;0.00;;;0.00;;
147;SDS011;142;50.652;12.216;2022-10-23T11:58:53;0.00;;;0.00;;
147;SDS011;142;50.652;12.216;2022-10-23T12:01:33;0.00;;;0.00;;
147;SDS011;142;50.652;12.216;2022-10-23T12:04:05;0.00;;;0.00;;
147;SDS011;142;50.652;12.216;2022-10-23T12:06:45;0.00;;;0.00;;
147;SDS011;142;50.652;12.216;2022-10-23T12:09:22;0.00;;;0.00;;
147;SDS011;142;50.652;12.216;2022-10-23T12:15:04;0.00;;;0.00;;
147;SDS011;142;50.652;12.216;2022-10-23T12:17:44;0.00;;;0.00;;
147;SDS011;142;50.652;12.216;2022-10-23T12:20:22;0.00;;;0.00;;
147;SDS011;142;50.652;12.216;2022-10-23T12:23:05;0.00;;;0.00;;
147;SDS011;142;50.652;12.216;2022-10-23T12:25:49;0.00;;;0.00;;
147;SDS011;142;50.652;12.216;2022-10-23T12:28:31;0.00;;;0.00;;
147;SDS011;142;50.652;12.216;2022-10-23T12:31:07;0.00;;;0.00;;
147;SDS011;142;50.652;12.216;2022-10-23T12:33:48;0.00;;;0.00;;
147;SDS011;142;50.652;12.216;2022-10-23T12:36:27;0.00;;;0.00;;
147;SDS011;142;50.652;12.216;2022-10-23T12:39:23;0.00;;;0.00;;
147;SDS011;142;50.652;12.216;2022-10-23T12:41:51;0.00;;;0.00;;
147;SDS011;142;50.652;12.216;2022-10-23T12:44:19;0.00;;;0.00;;
147;SDS011;142;50.652;12.216;2022-10-23T12:46:50;0.00;;;0.00;;
147;SDS011;142;50.652;12.216;2022-10-23T12:49:21;0.00;;;0.00;;
147;SDS011;142;50.652;12.216;2022-10-23T12:51:54;0.00;;;0.00;;
147;SDS011;142;50.652;12.216;2022-10-23T12:54:22;0.00;;;0.00;;
147;SDS011;142;50.652;12.216;2022-10-23T12:56:49;0.20;;;0.10;;
147;SDS011;142;50.652;12.216;2022-10-23T12:59:17;0.00;;;0.00;;
147;SDS011;142;50.652;12.216;2022-10-23T13:01:46;0.00;;;0.00;;
147;SDS011;142;50.652;12.216;2022-10-23T13:04:20;0.00;;;0.00;;
147;SDS011;142;50.652;12.216;2022-10-23T13:06:51;0.00;;;0.00;;
147;SDS011;142;50.652;12.216;2022-10-23T13:09:22;0.00;;;0.00;;
147;SDS011;142;50.652;12.216;2022-10-23T13:11:52;0.00;;;0.00;;
147;SDS011;142;50.652;12.216;2022-10-23T13:14:31;0.00;;;0.00;;
147;SDS011;142;50.652;12.216;2022-10-23T13:17:00;0.00;;;0.00;;
147;SDS011;142;50.652;12.216;2022-10-23T13:19:30;0.00;;;0.00;;
147;SDS011;142;50.652;12.216;2022-10-23T13:21:57;0.00;;;0.00;;
147;SDS011;142;50.652;12.216;2022-10-23T13:24:26;0.00;;;0.00;;
147;SDS011;142;50.652;12.216;2022-10-23T13:26:54;0.00;;;0.00;;
147;SDS011;142;50.652;12.216;2022-10-23T13:29:23;0.00;;;0.00;;
147;SDS011;142;50.652;12.216;2022-10-23T13:31:52;0.00;;;0.00;;
147;SDS011;142;50.652;12.216;2022-10-23T13:34:21;0.00;;;0.00;;
147;SDS011;142;50.652;12.216;2022-10-23T13:36:53;0.00;;;0.00;;
147;SDS011;142;50.652;12.216;2022-10-23T13:39:24;0.00;;;0.00;;
147;SDS011;142;50.652;12.216;2022-10-23T13:41:52;0.00;;;0.00;;
147;SDS011;142;50.652;12.216;2022-10-23T13:44:20;0.00;;;0.00;;
147;SDS011;142;50.652;12.216;2022-10-23T13:46:48;0.00;;;0.00;;
147;SDS011;142;50.652;12.216;2022-10-23T13:49:16;0.00;;;0.00;;
147;SDS011;142;50.652;12.216;2022-10-23T13:51:44;0.00;;;0.00;;
147;SDS011;142;50.652;12.216;2022-10-23T13:54:17;0.00;;;0.00;;
147;SDS011;142;50.652;12.216;2022-10-23T13:56:46;0.00;;;0.00;;
147;SDS011;142;50.652;12.216;2022-10-23T13:59:14;0.00;;;0.00;;
147;SDS011;142;50.652;12.216;2022-10-23T14:01:42;0.00;;;0.00;;
147;SDS011;142;50.652;12.216;2022-10-23T14:04:11;0.07;;;0.03;;
147;SDS011;142;50.652;12.216;2022-10-23T14:06:38;0.00;;;0.00;;
147;SDS011;142;50.652;12.216;2022-10-23T14:09:06;0.00;;;0.00;;
147;SDS011;142;50.652;12.216;2022-10-23T14:11:37;0.00;;;0.00;;
147;SDS011;142;50.652;12.216;2022-10-23T14:14:05;0.00;;;0.00;;
147;SDS011;142;50.652;12.216;2022-10-23T14:16:32;0.00;;;0.00;;
147;SDS011;142;50.652;12.216;2022-10-23T14:18:59;0.00;;;0.00;;
147;SDS011;142;50.652;12.216;2022-10-23T14:21:26;0.00;;;0.00;;
147;SDS011;142;50.652;12.216;2022-10-23T14:23:54;0.00;;;0.00;;
147;SDS011;142;50.652;12.216;2022-10-23T14:26:22;0.00;;;0.00;;
147;SDS011;142;50.652;12.216;2022-10-23T14:28:53;0.00;;;0.00;;
147;SDS011;142;50.652;12.216;2022-10-23T14:31:21;0.00;;;0.00;;
147;SDS011;142;50.652;12.216;2022-10-23T14:33:50;0.00;;;0.00;;
147;SDS011;142;50.652;12.216;2022-10-23T14:36:18;0.00;;;0.00;;
147;SDS011;142;50.652;12.216;2022-10-23T14:38:45;0.13;;;0.07;;
147;SDS011;142;50.652;12.216;2022-10-23T14:41:13;0.00;;;0.00;;
147;SDS011;142;50.652;12.216;2022-10-23T14:43:42;0.20;;;0.10;;
147;SDS011;142;50.652;12.216;2022-10-23T14:46:11;0.00;;;0.00;;
147;SDS011;142;50.652;12.216;2022-10-23T14:48:40;0.00;;;0.00;;
147;SDS011;142;50.652;12.216;2022-10-23T14:51:14;0.00;;;0.00;;
147;SDS011;142;50.652;12.216;2022-10-23T14:53:44;0.00;;;0.00;;
147;SDS011;142;50.652;12.216;2022-10-23T14:56:11;0.20;;;0.10;;
147;SDS011;142;50.652;12.216;2022-10-23T14:58:39;0.20;;;0.10;;
147;SDS011;142;50.652;12.216;2022-10-23T15:01:06;0.00;;;0.00;;
147;SDS011;142;50.652;12.216;2022-10-23T15:03:36;0.00;;;0.00;;
147;SDS011;142;50.652;12.216;2022-10-23T15:06:04;0.13;;;0.07;;
147;SDS011;142;50.652;12.216;2022-10-23T15:08:32;0.00;;;0.00;;
147;SDS011;142;50.652;12.216;2022-10-23T15:11:00;0.00;;;0.00;;
147;SDS011;142;50.652;12.216;2022-10-23T15:13:28;0.00;;;0.00;;
147;SDS011;142;50.652;12.216;2022-10-23T15:16:03;0.00;;;0.00;;
147;SDS011;142;50.652;12.216;2022-10-23T15:18:32;0.00;;;0.00;;
147;SDS011;142;50.652;12.216;2022-10-23T15:21:02;0.00;;;0.00;;
147;SDS011;142;50.652;12.216;2022-10-23T15:23:30;0.13;;;0.07;;
147;SDS011;142;50.652;12.216;2022-10-23T15:25:59;0.00;;;0.00;;
147;SDS011;142;50.652;12.216;2022-10-23T15:28:28;0.00;;;0.00;;
147;SDS011;142;50.652;12.216;2022-10-23T15:30:56;0.00;;;0.00;;
147;SDS011;142;50.652;12.216;2022-10-23T15:33:48;0.00;;;0.00;;
147;SDS011;142;50.652;12.216;2022-10-23T15:36:17;0.00;;;0.00;;
147;SDS011;142;50.652;12.216;2022-10-23T15:38:44;0.20;;;0.10;;
147;SDS011;142;50.652;12.216;2022-10-23T15:41:12;0.20;;;0.10;;
147;SDS011;142;50.652;12.216;2022-10-23T15:43:41;0.07;;;0.03;;
147;SDS011;142;50.652;12.216;2022-10-23T15:46:09;0.00;;;0.00;;
147;SDS011;142;50.652;12.216;2022-10-23T15:48:36;0.20;;;0.10;;
147;SDS011;142;50.652;12.216;2022-10-23T15:51:03;0.00;;;0.00;;
147;SDS011;142;50.652;12.216;2022-10-23T15:53:33;0.00;;;0.00;;
147;SDS011;142;50.652;12.216;2022-10-23T15:56:00;0.20;;;0.10;;
147;SDS011;142;50.652;12.216;2022-10-23T15:58:27;0.00;;;0.00;;
147;SDS011;142;50.652;12.216;2022-10-23T16:00:54;0.00;;;0.00;;
147;SDS011;142;50.652;12.216;2022-10-23T16:03:21;0.13;;;0.07;;
147;SDS011;142;50.652;12.216;2022-10-23T16:05:49;0.00;;;0.00;;